createdAt,value
2019-04-05T20:48:41.453Z,97695.33
2019-04-05T20:51:14.430Z,97695.33
2019-04-05T20:53:48.778Z,97728.73
2019-04-05T20:56:23.380Z,97724.83
2019-04-05T20:58:57.787Z,97721.70
2019-04-05T21:01:30.577Z,97726.59
2019-04-05T21:04:03.480Z,97729.42
2019-04-05T21:06:39.829Z,97724.78
2019-04-05T21:09:11.743Z,97728.34
2019-04-05T21:11:44.575Z,97728.80
2019-04-05T21:14:18.509Z,97726.26
2019-04-05T21:16:51.015Z,97730.69
2019-04-05T21:19:23.603Z,97734.50
2019-04-05T21:21:56.057Z,97726.53
2019-04-05T21:24:36.129Z,97727.48
2019-04-05T21:27:02.874Z,97731.21
2019-04-05T21:29:35.432Z,97731.19
2019-04-05T21:32:08.054Z,97734.40
2019-04-05T21:34:40.710Z,97742.63
2019-04-05T21:37:13.320Z,97746.84
2019-04-05T21:39:46.274Z,97748.23
2019-04-05T21:42:18.957Z,97718.31
2019-04-05T21:44:52.436Z,97718.31
2019-04-05T21:47:24.803Z,97747.11
2019-04-05T21:49:57.494Z,97741.61
2019-04-05T21:52:29.883Z,97740.26
2019-04-05T21:55:02.369Z,97743.22
2019-04-05T21:57:34.871Z,97742.07
2019-04-05T22:00:30.329Z,97749.23
2019-04-05T22:03:03.980Z,97748.93
2019-04-05T22:05:36.633Z,97747.78
2019-04-05T22:08:09.428Z,97750.24
2019-04-05T22:10:42.366Z,97749.26
2019-04-05T22:13:14.996Z,97751.22
2019-04-05T22:15:49.290Z,97751.22
2019-04-05T22:18:21.913Z,97740.30
2019-04-05T22:20:54.459Z,97740.30
2019-04-05T22:23:27.018Z,97755.05
2019-04-05T22:25:58.553Z,97758.59
2019-04-05T22:28:30.786Z,97762.77
2019-04-05T22:31:03.394Z,97762.80
2019-04-05T22:33:35.757Z,97733.91
2019-04-05T22:36:08.344Z,97733.91
2019-04-05T22:38:40.865Z,97746.52
2019-04-05T22:41:12.550Z,97746.52
2019-04-05T22:43:45.302Z,97763.84
2019-04-05T22:46:19.310Z,97769.39
2019-04-05T22:48:51.802Z,97768.39
2019-04-05T22:51:24.358Z,97768.39
2019-04-05T22:53:56.795Z,97779.78
2019-04-05T22:56:29.549Z,97779.78
2019-04-05T22:59:01.943Z,97776.75
2019-04-05T23:01:34.625Z,97779.89
2019-04-05T23:04:07.553Z,97783.20
2019-04-05T23:06:40.311Z,97780.57
2019-04-05T23:09:13.729Z,97782.59
2019-04-05T23:11:46.351Z,97782.91
2019-04-05T23:14:19.360Z,97787.21
2019-04-05T23:16:51.911Z,97782.06
2019-04-05T23:19:24.384Z,97776.02
2019-04-05T23:21:56.351Z,97778.92
2019-04-05T23:24:28.351Z,97781.95
2019-04-05T23:27:00.757Z,97792.13
2019-04-05T23:29:33.407Z,97792.13
2019-04-05T23:32:05.792Z,97792.53
2019-04-05T23:34:38.505Z,97792.80
2019-04-05T23:37:11.053Z,97793.90
2019-04-05T23:39:43.478Z,97793.80
2019-04-05T23:42:15.891Z,97804.45
2019-04-05T23:44:52.830Z,97765.90
2019-04-05T23:47:25.451Z,97765.90
2019-04-05T23:49:57.891Z,97792.09
2019-04-05T23:52:30.599Z,97788.45
2019-04-05T23:55:04.584Z,97790.69
2019-04-05T23:57:37.032Z,97788.84
